sensor_id;sensor_type;location;lat;lon;timestamp;P1;durP1;ratioP1;P2;durP2;ratioP2
19024;SDS011;9645;51.448;6.260;2023-12-07T00:00:16;50.13;;;19.50;;
19024;SDS011;9645;51.448;6.260;2023-12-07T00:02:44;56.20;;;18.40;;
19024;SDS011;9645;51.448;6.260;2023-12-07T00:05:11;60.95;;;20.48;;
19024;SDS011;9645;51.448;6.260;2023-12-07T00:07:39;49.22;;;18.95;;
19024;SDS011;9645;51.448;6.260;2023-12-07T00:10:06;53.28;;;18.95;;
19024;SDS011;9645;51.448;6.260;2023-12-07T00:12:34;54.45;;;19.75;;
19024;SDS011;9645;51.448;6.260;2023-12-07T00:15:01;46.38;;;19.17;;
19024;SDS011;9645;51.448;6.260;2023-12-07T00:17:28;58.63;;;21.10;;
19024;SDS011;9645;51.448;6.260;2023-12-07T00:19:55;52.33;;;20.67;;
19024;SDS011;9645;51.448;6.260;2023-12-07T00:22:22;57.55;;;20.23;;
19024;SDS011;9645;51.448;6.260;2023-12-07T00:24:51;57.70;;;20.33;;
19024;SDS011;9645;51.448;6.260;2023-12-07T00:27:18;58.65;;;21.30;;
19024;SDS011;9645;51.448;6.260;2023-12-07T00:29:45;49.63;;;19.25;;
19024;SDS011;9645;51.448;6.260;2023-12-07T00:32:12;63.03;;;20.30;;
19024;SDS011;9645;51.448;6.260;2023-12-07T00:34:39;53.78;;;19.88;;
19024;SDS011;9645;51.448;6.260;2023-12-07T00:37:06;58.22;;;19.10;;
19024;SDS011;9645;51.448;6.260;2023-12-07T00:39:33;54.50;;;19.10;;
19024;SDS011;9645;51.448;6.260;2023-12-07T00:42:02;55.00;;;19.83;;
19024;SDS011;9645;51.448;6.260;2023-12-07T00:44:29;51.00;;;19.20;;
19024;SDS011;9645;51.448;6.260;2023-12-07T00:46:56;46.47;;;19.42;;
19024;SDS011;9645;51.448;6.260;2023-12-07T00:49:23;61.10;;;20.30;;
19024;SDS011;9645;51.448;6.260;2023-12-07T00:51:50;52.90;;;20.60;;
19024;SDS011;9645;51.448;6.260;2023-12-07T00:54:17;54.40;;;19.67;;
19024;SDS011;9645;51.448;6.260;2023-12-07T00:56:44;47.85;;;18.55;;
19024;SDS011;9645;51.448;6.260;2023-12-07T00:59:12;53.63;;;19.02;;
19024;SDS011;9645;51.448;6.260;2023-12-07T01:01:39;62.83;;;20.73;;
19024;SDS011;9645;51.448;6.260;2023-12-07T01:04:06;52.35;;;19.27;;
19024;SDS011;9645;51.448;6.260;2023-12-07T01:06:33;52.72;;;19.15;;
19024;SDS011;9645;51.448;6.260;2023-12-07T01:09:00;55.33;;;20.70;;
19024;SDS011;9645;51.448;6.260;2023-12-07T01:11:28;54.47;;;21.02;;
19024;SDS011;9645;51.448;6.260;2023-12-07T01:13:55;53.65;;;19.63;;
19024;SDS011;9645;51.448;6.260;2023-12-07T01:16:24;59.65;;;21.15;;
19024;SDS011;9645;51.448;6.260;2023-12-07T01:18:51;78.95;;;23.92;;
19024;SDS011;9645;51.448;6.260;2023-12-07T01:21:21;53.40;;;20.95;;
19024;SDS011;9645;51.448;6.260;2023-12-07T01:23:48;57.45;;;21.25;;
19024;SDS011;9645;51.448;6.260;2023-12-07T01:26:16;66.03;;;21.50;;
19024;SDS011;9645;51.448;6.260;2023-12-07T01:28:43;52.60;;;19.90;;
19024;SDS011;9645;51.448;6.260;2023-12-07T01:31:10;49.13;;;18.58;;
19024;SDS011;9645;51.448;6.260;2023-12-07T01:33:38;56.60;;;19.98;;
19024;SDS011;9645;51.448;6.260;2023-12-07T01:36:05;48.17;;;18.92;;
19024;SDS011;9645;51.448;6.260;2023-12-07T01:38:33;55.05;;;19.48;;
19024;SDS011;9645;51.448;6.260;2023-12-07T01:41:00;62.42;;;20.60;;
19024;SDS011;9645;51.448;6.260;2023-12-07T01:43:27;61.92;;;21.58;;
19024;SDS011;9645;51.448;6.260;2023-12-07T01:45:55;57.35;;;21.08;;
19024;SDS011;9645;51.448;6.260;2023-12-07T01:48:24;56.33;;;20.98;;
19024;SDS011;9645;51.448;6.260;2023-12-07T01:50:54;58.72;;;21.90;;
19024;SDS011;9645;51.448;6.260;2023-12-07T01:53:22;49.70;;;19.50;;
19024;SDS011;9645;51.448;6.260;2023-12-07T01:55:50;54.97;;;19.20;;
19024;SDS011;9645;51.448;6.260;2023-12-07T01:58:21;52.40;;;19.17;;
19024;SDS011;9645;51.448;6.260;2023-12-07T02:00:48;50.83;;;20.48;;
19024;SDS011;9645;51.448;6.260;2023-12-07T02:03:15;56.33;;;20.73;;
19024;SDS011;9645;51.448;6.260;2023-12-07T02:05:45;56.75;;;19.63;;
19024;SDS011;9645;51.448;6.260;2023-12-07T02:08:15;59.33;;;20.15;;
19024;SDS011;9645;51.448;6.260;2023-12-07T02:10:42;45.15;;;18.55;;
19024;SDS011;9645;51.448;6.260;2023-12-07T02:13:09;68.40;;;21.05;;
19024;SDS011;9645;51.448;6.260;2023-12-07T02:15:36;58.10;;;20.52;;
19024;SDS011;9645;51.448;6.260;2023-12-07T02:18:05;56.28;;;20.02;;
19024;SDS011;9645;51.448;6.260;2023-12-07T02:20:37;61.40;;;21.10;;
19024;SDS011;9645;51.448;6.260;2023-12-07T02:23:09;61.65;;;21.13;;
19024;SDS011;9645;51.448;6.260;2023-12-07T02:25:44;53.53;;;19.90;;
19024;SDS011;9645;51.448;6.260;2023-12-07T02:28:15;56.00;;;19.42;;
19024;SDS011;9645;51.448;6.260;2023-12-07T02:30:43;74.05;;;20.88;;
19024;SDS011;9645;51.448;6.260;2023-12-07T02:33:10;66.20;;;20.55;;
19024;SDS011;9645;51.448;6.260;2023-12-07T02:35:38;73.80;;;19.13;;
19024;SDS011;9645;51.448;6.260;2023-12-07T02:38:07;90.72;;;20.17;;
19024;SDS011;9645;51.448;6.260;2023-12-07T02:40:35;290.77;;;26.38;;
19024;SDS011;9645;51.448;6.260;2023-12-07T02:43:03;252.65;;;24.33;;
19024;SDS011;9645;51.448;6.260;2023-12-07T02:45:32;405.65;;;26.48;;
19024;SDS011;9645;51.448;6.260;2023-12-07T02:48:00;331.58;;;24.27;;
19024;SDS011;9645;51.448;6.260;2023-12-07T02:50:27;275.67;;;22.23;;
19024;SDS011;9645;51.448;6.260;2023-12-07T02:52:54;399.15;;;25.52;;
19024;SDS011;9645;51.448;6.260;2023-12-07T02:55:21;354.35;;;27.27;;
19024;SDS011;9645;51.448;6.260;2023-12-07T02:57:49;185.38;;;21.38;;
19024;SDS011;9645;51.448;6.260;2023-12-07T03:00:16;527.20;;;30.30;;
19024;SDS011;9645;51.448;6.260;2023-12-07T03:02:45;495.95;;;27.38;;
19024;SDS011;9645;51.448;6.260;2023-12-07T03:05:13;255.82;;;20.95;;
19024;SDS011;9645;51.448;6.260;2023-12-07T03:07:40;229.52;;;20.33;;
19024;SDS011;9645;51.448;6.260;2023-12-07T03:10:07;466.67;;;27.90;;
19024;SDS011;9645;51.448;6.260;2023-12-07T03:12:34;278.77;;;23.45;;
19024;SDS011;9645;51.448;6.260;2023-12-07T03:15:01;306.00;;;21.20;;
19024;SDS011;9645;51.448;6.260;2023-12-07T03:17:29;195.88;;;20.17;;
19024;SDS011;9645;51.448;6.260;2023-12-07T03:19:57;390.55;;;24.65;;
19024;SDS011;9645;51.448;6.260;2023-12-07T03:22:24;170.02;;;19.48;;
19024;SDS011;9645;51.448;6.260;2023-12-07T03:24:52;357.05;;;24.58;;
19024;SDS011;9645;51.448;6.260;2023-12-07T03:27:19;255.93;;;22.42;;
19024;SDS011;9645;51.448;6.260;2023-12-07T03:29:46;484.55;;;27.45;;
19024;SDS011;9645;51.448;6.260;2023-12-07T03:32:14;305.92;;;22.05;;
19024;SDS011;9645;51.448;6.260;2023-12-07T03:34:41;239.35;;;20.65;;
19024;SDS011;9645;51.448;6.260;2023-12-07T03:37:09;141.18;;;18.95;;
19024;SDS011;9645;51.448;6.260;2023-12-07T03:39:36;350.33;;;24.08;;
19024;SDS011;9645;51.448;6.260;2023-12-07T03:42:03;157.35;;;18.13;;
19024;SDS011;9645;51.448;6.260;2023-12-07T03:44:31;225.27;;;21.65;;
19024;SDS011;9645;51.448;6.260;2023-12-07T03:46:57;375.50;;;25.23;;
19024;SDS011;9645;51.448;6.260;2023-12-07T03:49:24;174.68;;;19.55;;
19024;SDS011;9645;51.448;6.260;2023-12-07T03:51:51;46.78;;;17.00;;
19024;SDS011;9645;51.448;6.260;2023-12-07T03:54:20;148.05;;;18.95;;
19024;SDS011;9645;51.448;6.260;2023-12-07T03:56:47;168.65;;;19.48;;
19024;SDS011;9645;51.448;6.260;2023-12-07T03:59:14;201.15;;;19.65;;
19024;SDS011;9645;51.448;6.260;2023-12-07T04:01:41;238.88;;;19.00;;
19024;SDS011;9645;51.448;6.260;2023-12-07T04:04:08;137.65;;;19.00;;
19024;SDS011;9645;51.448;6.260;2023-12-07T04:06:35;291.17;;;20.25;;
19024;SDS011;9645;51.448;6.260;2023-12-07T04:09:02;247.90;;;19.67;;
19024;SDS011;9645;51.448;6.260;2023-12-07T04:11:30;237.98;;;22.13;;
19024;SDS011;9645;51.448;6.260;2023-12-07T04:13:57;224.82;;;18.75;;
19024;SDS011;9645;51.448;6.260;2023-12-07T04:16:24;281.48;;;22.35;;
19024;SDS011;9645;51.448;6.260;2023-12-07T04:18:51;270.98;;;20.20;;
19024;SDS011;9645;51.448;6.260;2023-12-07T04:21:18;121.45;;;17.60;;
19024;SDS011;9645;51.448;6.260;2023-12-07T04:23:45;261.50;;;20.67;;
19024;SDS011;9645;51.448;6.260;2023-12-07T04:26:12;239.68;;;20.30;;
19024;SDS011;9645;51.448;6.260;2023-12-07T04:28:42;46.60;;;14.90;;
19024;SDS011;9645;51.448;6.260;2023-12-07T04:31:08;333.38;;;21.00;;
19024;SDS011;9645;51.448;6.260;2023-12-07T04:33:35;360.98;;;23.83;;
19024;SDS011;9645;51.448;6.260;2023-12-07T04:36:03;63.60;;;14.65;;
19024;SDS011;9645;51.448;6.260;2023-12-07T04:38:30;114.50;;;15.07;;
19024;SDS011;9645;51.448;6.260;2023-12-07T04:40:58;193.18;;;18.48;;
19024;SDS011;9645;51.448;6.260;2023-12-07T04:43:24;217.10;;;17.92;;
19024;SDS011;9645;51.448;6.260;2023-12-07T04:45:53;219.90;;;18.60;;
19024;SDS011;9645;51.448;6.260;2023-12-07T04:48:20;213.00;;;18.95;;
19024;SDS011;9645;51.448;6.260;2023-12-07T04:50:47;326.63;;;21.50;;
19024;SDS011;9645;51.448;6.260;2023-12-07T04:53:14;149.80;;;17.10;;
19024;SDS011;9645;51.448;6.260;2023-12-07T04:55:41;258.38;;;18.90;;
19024;SDS011;9645;51.448;6.260;2023-12-07T04:58:12;181.77;;;18.15;;
19024;SDS011;9645;51.448;6.260;2023-12-07T05:00:39;113.50;;;17.83;;
19024;SDS011;9645;51.448;6.260;2023-12-07T05:03:07;165.07;;;15.93;;
19024;SDS011;9645;51.448;6.260;2023-12-07T05:05:35;189.68;;;17.27;;
19024;SDS011;9645;51.448;6.260;2023-12-07T05:08:02;300.75;;;19.80;;
19024;SDS011;9645;51.448;6.260;2023-12-07T05:10:29;94.88;;;14.35;;
19024;SDS011;9645;51.448;6.260;2023-12-07T05:12:56;294.55;;;18.73;;
19024;SDS011;9645;51.448;6.260;2023-12-07T05:15:23;169.13;;;16.45;;
19024;SDS011;9645;51.448;6.260;2023-12-07T05:17:50;43.45;;;13.73;;
19024;SDS011;9645;51.448;6.260;2023-12-07T05:20:22;58.88;;;13.07;;
19024;SDS011;9645;51.448;6.260;2023-12-07T05:22:51;216.52;;;17.17;;
19024;SDS011;9645;51.448;6.260;2023-12-07T05:25:18;107.60;;;14.20;;
19024;SDS011;9645;51.448;6.260;2023-12-07T05:27:45;226.50;;;15.82;;
19024;SDS011;9645;51.448;6.260;2023-12-07T05:30:12;95.20;;;13.80;;
19024;SDS011;9645;51.448;6.260;2023-12-07T05:32:40;308.25;;;19.42;;
19024;SDS011;9645;51.448;6.260;2023-12-07T05:35:09;261.23;;;17.42;;
19024;SDS011;9645;51.448;6.260;2023-12-07T05:37:39;74.43;;;11.60;;
19024;SDS011;9645;51.448;6.260;2023-12-07T05:40:06;90.18;;;14.10;;
19024;SDS011;9645;51.448;6.260;2023-12-07T05:42:37;50.85;;;13.25;;
19024;SDS011;9645;51.448;6.260;2023-12-07T05:45:05;106.82;;;14.43;;
19024;SDS011;9645;51.448;6.260;2023-12-07T05:47:35;69.13;;;13.95;;
19024;SDS011;9645;51.448;6.260;2023-12-07T05:50:02;57.30;;;12.25;;
19024;SDS011;9645;51.448;6.260;2023-12-07T05:52:30;65.28;;;14.73;;
19024;SDS011;9645;51.448;6.260;2023-12-07T05:54:58;108.82;;;13.40;;
19024;SDS011;9645;51.448;6.260;2023-12-07T05:57:25;138.20;;;15.45;;
19024;SDS011;9645;51.448;6.260;2023-12-07T05:59:53;115.32;;;14.23;;
19024;SDS011;9645;51.448;6.260;2023-12-07T06:02:20;139.35;;;14.75;;
19024;SDS011;9645;51.448;6.260;2023-12-07T06:04:47;104.00;;;13.65;;
19024;SDS011;9645;51.448;6.260;2023-12-07T06:07:15;146.07;;;13.98;;
19024;SDS011;9645;51.448;6.260;2023-12-07T06:09:41;143.05;;;15.00;;
19024;SDS011;9645;51.448;6.260;2023-12-07T06:12:10;170.32;;;16.92;;
19024;SDS011;9645;51.448;6.260;2023-12-07T06:14:37;150.38;;;14.23;;
19024;SDS011;9645;51.448;6.260;2023-12-07T06:17:04;132.23;;;14.77;;
19024;SDS011;9645;51.448;6.260;2023-12-07T06:19:31;127.07;;;14.73;;
19024;SDS011;9645;51.448;6.260;2023-12-07T06:21:58;153.85;;;15.00;;
19024;SDS011;9645;51.448;6.260;2023-12-07T06:24:26;48.10;;;13.27;;
19024;SDS011;9645;51.448;6.260;2023-12-07T06:26:53;99.35;;;14.55;;
19024;SDS011;9645;51.448;6.260;2023-12-07T06:29:21;238.68;;;15.05;;
19024;SDS011;9645;51.448;6.260;2023-12-07T06:31:48;111.88;;;14.23;;
19024;SDS011;9645;51.448;6.260;2023-12-07T06:34:15;158.05;;;16.20;;
19024;SDS011;9645;51.448;6.260;2023-12-07T06:36:42;165.07;;;14.55;;
19024;SDS011;9645;51.448;6.260;2023-12-07T06:39:09;241.15;;;15.30;;
19024;SDS011;9645;51.448;6.260;2023-12-07T06:41:36;172.65;;;14.05;;
19024;SDS011;9645;51.448;6.260;2023-12-07T06:44:03;73.40;;;14.57;;
19024;SDS011;9645;51.448;6.260;2023-12-07T06:46:32;80.40;;;14.52;;
19024;SDS011;9645;51.448;6.260;2023-12-07T06:48:59;166.50;;;16.40;;
19024;SDS011;9645;51.448;6.260;2023-12-07T06:51:26;133.90;;;16.70;;
19024;SDS011;9645;51.448;6.260;2023-12-07T06:53:53;136.93;;;17.42;;
19024;SDS011;9645;51.448;6.260;2023-12-07T06:56:20;232.05;;;21.77;;
19024;SDS011;9645;51.448;6.260;2023-12-07T06:58:47;108.97;;;18.15;;
19024;SDS011;9645;51.448;6.260;2023-12-07T07:01:14;94.28;;;17.40;;
19024;SDS011;9645;51.448;6.260;2023-12-07T07:03:42;125.47;;;17.88;;
19024;SDS011;9645;51.448;6.260;2023-12-07T07:06:09;114.82;;;16.08;;
19024;SDS011;9645;51.448;6.260;2023-12-07T07:08:36;148.98;;;16.58;;
19024;SDS011;9645;51.448;6.260;2023-12-07T07:11:09;76.18;;;15.23;;
19024;SDS011;9645;51.448;6.260;2023-12-07T07:13:38;142.00;;;17.35;;
19024;SDS011;9645;51.448;6.260;2023-12-07T07:16:05;90.07;;;14.25;;
19024;SDS011;9645;51.448;6.260;2023-12-07T07:18:33;147.25;;;16.52;;
19024;SDS011;9645;51.448;6.260;2023-12-07T07:21:01;78.75;;;14.63;;
19024;SDS011;9645;51.448;6.260;2023-12-07T07:23:29;31.67;;;11.10;;
19024;SDS011;9645;51.448;6.260;2023-12-07T07:25:56;133.80;;;14.80;;
19024;SDS011;9645;51.448;6.260;2023-12-07T07:28:23;161.50;;;14.45;;
19024;SDS011;9645;51.448;6.260;2023-12-07T07:30:50;100.75;;;14.10;;
19024;SDS011;9645;51.448;6.260;2023-12-07T07:33:18;66.35;;;13.48;;
19024;SDS011;9645;51.448;6.260;2023-12-07T07:35:48;47.25;;;11.40;;
19024;SDS011;9645;51.448;6.260;2023-12-07T07:38:16;61.30;;;12.57;;
19024;SDS011;9645;51.448;6.260;2023-12-07T07:40:43;52.92;;;11.80;;
19024;SDS011;9645;51.448;6.260;2023-12-07T07:43:12;87.60;;;13.63;;
19024;SDS011;9645;51.448;6.260;2023-12-07T07:45:39;60.80;;;12.52;;
19024;SDS011;9645;51.448;6.260;2023-12-07T07:48:09;61.78;;;12.20;;
19024;SDS011;9645;51.448;6.260;2023-12-07T07:50:37;97.47;;;13.38;;
19024;SDS011;9645;51.448;6.260;2023-12-07T07:53:04;57.13;;;12.70;;
19024;SDS011;9645;51.448;6.260;2023-12-07T07:55:32;61.30;;;13.10;;
19024;SDS011;9645;51.448;6.260;2023-12-07T07:57:59;119.20;;;13.75;;
19024;SDS011;9645;51.448;6.260;2023-12-07T08:00:27;117.68;;;13.73;;
19024;SDS011;9645;51.448;6.260;2023-12-07T08:02:54;71.15;;;13.05;;
19024;SDS011;9645;51.448;6.260;2023-12-07T08:05:22;47.35;;;12.95;;
19024;SDS011;9645;51.448;6.260;2023-12-07T08:07:48;61.58;;;14.20;;
19024;SDS011;9645;51.448;6.260;2023-12-07T08:10:16;53.78;;;12.40;;
19024;SDS011;9645;51.448;6.260;2023-12-07T08:12:45;64.35;;;13.55;;
19024;SDS011;9645;51.448;6.260;2023-12-07T08:15:12;50.47;;;12.15;;
19024;SDS011;9645;51.448;6.260;2023-12-07T08:17:39;57.97;;;14.05;;
19024;SDS011;9645;51.448;6.260;2023-12-07T08:20:07;54.05;;;13.57;;
19024;SDS011;9645;51.448;6.260;2023-12-07T08:22:36;42.42;;;12.90;;
19024;SDS011;9645;51.448;6.260;2023-12-07T08:25:03;52.25;;;13.60;;
19024;SDS011;9645;51.448;6.260;2023-12-07T08:27:31;45.65;;;12.85;;
19024;SDS011;9645;51.448;6.260;2023-12-07T08:30:00;43.95;;;12.95;;
19024;SDS011;9645;51.448;6.260;2023-12-07T08:32:27;78.38;;;14.35;;
19024;SDS011;9645;51.448;6.260;2023-12-07T08:34:54;43.58;;;14.50;;
19024;SDS011;9645;51.448;6.260;2023-12-07T08:37:22;63.22;;;13.30;;
19024;SDS011;9645;51.448;6.260;2023-12-07T08:39:49;41.30;;;13.80;;
19024;SDS011;9645;51.448;6.260;2023-12-07T08:42:16;47.67;;;14.70;;
19024;SDS011;9645;51.448;6.260;2023-12-07T08:44:43;51.35;;;13.60;;
19024;SDS011;9645;51.448;6.260;2023-12-07T08:47:14;87.57;;;14.40;;
19024;SDS011;9645;51.448;6.260;2023-12-07T08:49:41;45.90;;;13.93;;
19024;SDS011;9645;51.448;6.260;2023-12-07T08:52:08;60.20;;;15.23;;
19024;SDS011;9645;51.448;6.260;2023-12-07T08:54:35;50.63;;;13.32;;
19024;SDS011;9645;51.448;6.260;2023-12-07T08:57:02;56.08;;;14.77;;
19024;SDS011;9645;51.448;6.260;2023-12-07T08:59:30;59.20;;;15.30;;
19024;SDS011;9645;51.448;6.260;2023-12-07T09:01:56;58.97;;;14.88;;
19024;SDS011;9645;51.448;6.260;2023-12-07T09:04:25;66.60;;;16.25;;
19024;SDS011;9645;51.448;6.260;2023-12-07T09:06:53;59.22;;;15.80;;
19024;SDS011;9645;51.448;6.260;2023-12-07T09:09:20;62.30;;;15.85;;
19024;SDS011;9645;51.448;6.260;2023-12-07T09:11:48;79.20;;;15.98;;
19024;SDS011;9645;51.448;6.260;2023-12-07T09:14:15;58.28;;;14.90;;
19024;SDS011;9645;51.448;6.260;2023-12-07T09:16:42;55.55;;;14.43;;
19024;SDS011;9645;51.448;6.260;2023-12-07T09:19:11;62.22;;;15.65;;
19024;SDS011;9645;51.448;6.260;2023-12-07T09:21:40;51.78;;;16.00;;
19024;SDS011;9645;51.448;6.260;2023-12-07T09:24:07;53.03;;;14.90;;
19024;SDS011;9645;51.448;6.260;2023-12-07T09:26:34;59.15;;;16.23;;
19024;SDS011;9645;51.448;6.260;2023-12-07T09:29:02;68.75;;;17.98;;
19024;SDS011;9645;51.448;6.260;2023-12-07T09:31:29;59.72;;;17.63;;
19024;SDS011;9645;51.448;6.260;2023-12-07T09:33:56;84.25;;;19.83;;
19024;SDS011;9645;51.448;6.260;2023-12-07T09:36:23;71.75;;;17.05;;
19024;SDS011;9645;51.448;6.260;2023-12-07T09:38:53;113.95;;;17.98;;
19024;SDS011;9645;51.448;6.260;2023-12-07T09:41:20;133.93;;;18.05;;
19024;SDS011;9645;51.448;6.260;2023-12-07T09:43:49;80.97;;;18.52;;
19024;SDS011;9645;51.448;6.260;2023-12-07T09:46:16;62.95;;;19.30;;
19024;SDS011;9645;51.448;6.260;2023-12-07T09:48:44;90.45;;;20.45;;
19024;SDS011;9645;51.448;6.260;2023-12-07T09:51:15;70.75;;;17.95;;
19024;SDS011;9645;51.448;6.260;2023-12-07T09:53:42;86.70;;;18.80;;
19024;SDS011;9645;51.448;6.260;2023-12-07T09:56:13;87.05;;;17.58;;
19024;SDS011;9645;51.448;6.260;2023-12-07T09:58:40;126.03;;;21.40;;
19024;SDS011;9645;51.448;6.260;2023-12-07T10:01:07;87.22;;;20.15;;
19024;SDS011;9645;51.448;6.260;2023-12-07T10:03:38;88.57;;;19.27;;
19024;SDS011;9645;51.448;6.260;2023-12-07T10:06:06;86.80;;;19.73;;
19024;SDS011;9645;51.448;6.260;2023-12-07T10:08:33;91.18;;;18.30;;
19024;SDS011;9645;51.448;6.260;2023-12-07T10:11:03;106.55;;;20.20;;
19024;SDS011;9645;51.448;6.260;2023-12-07T10:13:33;113.32;;;20.83;;
19024;SDS011;9645;51.448;6.260;2023-12-07T10:16:08;69.07;;;16.90;;
19024;SDS011;9645;51.448;6.260;2023-12-07T10:18:36;71.97;;;18.75;;
19024;SDS011;9645;51.448;6.260;2023-12-07T10:21:06;62.42;;;17.23;;
19024;SDS011;9645;51.448;6.260;2023-12-07T10:23:34;76.97;;;20.95;;
19024;SDS011;9645;51.448;6.260;2023-12-07T10:26:01;81.63;;;23.48;;
19024;SDS011;9645;51.448;6.260;2023-12-07T10:28:29;61.88;;;17.40;;
19024;SDS011;9645;51.448;6.260;2023-12-07T10:30:58;59.17;;;16.30;;
19024;SDS011;9645;51.448;6.260;2023-12-07T10:33:25;63.25;;;18.70;;
19024;SDS011;9645;51.448;6.260;2023-12-07T10:35:53;64.50;;;17.40;;
19024;SDS011;9645;51.448;6.260;2023-12-07T10:38:20;59.72;;;17.38;;
19024;SDS011;9645;51.448;6.260;2023-12-07T10:40:47;57.33;;;16.52;;
19024;SDS011;9645;51.448;6.260;2023-12-07T10:43:17;51.00;;;16.67;;
19024;SDS011;9645;51.448;6.260;2023-12-07T10:45:46;57.42;;;17.25;;
19024;SDS011;9645;51.448;6.260;2023-12-07T10:48:15;71.00;;;18.23;;
19024;SDS011;9645;51.448;6.260;2023-12-07T10:50:45;57.28;;;17.67;;
19024;SDS011;9645;51.448;6.260;2023-12-07T10:53:19;58.83;;;18.83;;
19024;SDS011;9645;51.448;6.260;2023-12-07T10:55:50;58.83;;;17.77;;
19024;SDS011;9645;51.448;6.260;2023-12-07T10:58:22;64.95;;;17.85;;
19024;SDS011;9645;51.448;6.260;2023-12-07T11:00:52;66.18;;;18.20;;
19024;SDS011;9645;51.448;6.260;2023-12-07T11:03:21;57.83;;;18.38;;
19024;SDS011;9645;51.448;6.260;2023-12-07T11:05:48;56.63;;;19.38;;
19024;SDS011;9645;51.448;6.260;2023-12-07T11:08:19;95.95;;;26.05;;
19024;SDS011;9645;51.448;6.260;2023-12-07T11:10:54;77.05;;;24.77;;
19024;SDS011;9645;51.448;6.260;2023-12-07T11:13:31;61.22;;;18.45;;
19024;SDS011;9645;51.448;6.260;2023-12-07T11:16:01;67.72;;;19.38;;
19024;SDS011;9645;51.448;6.260;2023-12-07T11:18:34;63.20;;;18.65;;
19024;SDS011;9645;51.448;6.260;2023-12-07T11:21:01;67.05;;;20.23;;
19024;SDS011;9645;51.448;6.260;2023-12-07T11:23:28;70.72;;;22.83;;
19024;SDS011;9645;51.448;6.260;2023-12-07T11:25:57;57.13;;;22.00;;
19024;SDS011;9645;51.448;6.260;2023-12-07T11:28:37;55.75;;;18.98;;
19024;SDS011;9645;51.448;6.260;2023-12-07T11:31:05;35.13;;;14.65;;
19024;SDS011;9645;51.448;6.260;2023-12-07T11:33:34;28.55;;;12.90;;
19024;SDS011;9645;51.448;6.260;2023-12-07T11:36:04;33.07;;;14.20;;
19024;SDS011;9645;51.448;6.260;2023-12-07T11:38:32;26.93;;;13.17;;
19024;SDS011;9645;51.448;6.260;2023-12-07T11:40:59;31.03;;;13.53;;
19024;SDS011;9645;51.448;6.260;2023-12-07T11:43:37;23.43;;;12.20;;
19024;SDS011;9645;51.448;6.260;2023-12-07T11:46:09;25.20;;;11.93;;
19024;SDS011;9645;51.448;6.260;2023-12-07T11:48:39;26.50;;;13.30;;
19024;SDS011;9645;51.448;6.260;2023-12-07T11:51:07;26.77;;;10.93;;
19024;SDS011;9645;51.448;6.260;2023-12-07T11:53:36;27.33;;;12.47;;
19024;SDS011;9645;51.448;6.260;2023-12-07T11:56:03;21.07;;;10.70;;
19024;SDS011;9645;51.448;6.260;2023-12-07T11:58:31;23.07;;;10.97;;
19024;SDS011;9645;51.448;6.260;2023-12-07T12:00:59;26.10;;;12.47;;
19024;SDS011;9645;51.448;6.260;2023-12-07T12:03:27;24.47;;;11.70;;
19024;SDS011;9645;51.448;6.260;2023-12-07T12:05:56;27.73;;;12.00;;
19024;SDS011;9645;51.448;6.260;2023-12-07T12:08:23;30.20;;;12.32;;
19024;SDS011;9645;51.448;6.260;2023-12-07T12:10:51;23.90;;;10.93;;
19024;SDS011;9645;51.448;6.260;2023-12-07T12:13:25;27.50;;;13.13;;
19024;SDS011;9645;51.448;6.260;2023-12-07T12:15:52;28.50;;;12.07;;
19024;SDS011;9645;51.448;6.260;2023-12-07T12:18:21;27.52;;;11.95;;
19024;SDS011;9645;51.448;6.260;2023-12-07T12:20:50;29.33;;;12.27;;
19024;SDS011;9645;51.448;6.260;2023-12-07T12:23:17;31.23;;;11.35;;
19024;SDS011;9645;51.448;6.260;2023-12-07T12:25:45;37.85;;;13.10;;
19024;SDS011;9645;51.448;6.260;2023-12-07T12:28:13;35.13;;;12.90;;
19024;SDS011;9645;51.448;6.260;2023-12-07T12:30:42;29.17;;;12.60;;
19024;SDS011;9645;51.448;6.260;2023-12-07T12:33:09;34.08;;;12.88;;
19024;SDS011;9645;51.448;6.260;2023-12-07T12:35:36;36.78;;;12.95;;
19024;SDS011;9645;51.448;6.260;2023-12-07T12:38:08;32.90;;;12.15;;
19024;SDS011;9645;51.448;6.260;2023-12-07T12:40:37;30.25;;;12.70;;
19024;SDS011;9645;51.448;6.260;2023-12-07T12:43:06;35.25;;;12.25;;
19024;SDS011;9645;51.448;6.260;2023-12-07T12:45:35;33.00;;;13.10;;
19024;SDS011;9645;51.448;6.260;2023-12-07T12:48:03;40.17;;;12.95;;
19024;SDS011;9645;51.448;6.260;2023-12-07T12:50:33;30.95;;;12.48;;
19024;SDS011;9645;51.448;6.260;2023-12-07T12:53:02;34.92;;;12.80;;
19024;SDS011;9645;51.448;6.260;2023-12-07T12:55:30;30.75;;;12.32;;
19024;SDS011;9645;51.448;6.260;2023-12-07T12:57:59;28.58;;;11.48;;
19024;SDS011;9645;51.448;6.260;2023-12-07T13:00:29;26.55;;;10.55;;
19024;SDS011;9645;51.448;6.260;2023-12-07T13:02:56;37.10;;;11.23;;
19024;SDS011;9645;51.448;6.260;2023-12-07T13:05:23;25.90;;;11.43;;
19024;SDS011;9645;51.448;6.260;2023-12-07T13:07:51;30.65;;;12.85;;
19024;SDS011;9645;51.448;6.260;2023-12-07T13:10:18;34.55;;;12.02;;
19024;SDS011;9645;51.448;6.260;2023-12-07T13:12:46;30.00;;;11.65;;
19024;SDS011;9645;51.448;6.260;2023-12-07T13:15:14;30.88;;;12.70;;
19024;SDS011;9645;51.448;6.260;2023-12-07T13:17:42;35.20;;;11.40;;
19024;SDS011;9645;51.448;6.260;2023-12-07T13:20:09;31.77;;;13.13;;
19024;SDS011;9645;51.448;6.260;2023-12-07T13:22:38;34.50;;;11.60;;
19024;SDS011;9645;51.448;6.260;2023-12-07T13:25:08;33.53;;;13.20;;
19024;SDS011;9645;51.448;6.260;2023-12-07T13:27:37;25.73;;;11.02;;
19024;SDS011;9645;51.448;6.260;2023-12-07T13:30:04;30.65;;;12.30;;
19024;SDS011;9645;51.448;6.260;2023-12-07T13:32:33;28.88;;;12.20;;
19024;SDS011;9645;51.448;6.260;2023-12-07T13:35:02;35.05;;;12.35;;
19024;SDS011;9645;51.448;6.260;2023-12-07T13:37:29;32.95;;;11.88;;
19024;SDS011;9645;51.448;6.260;2023-12-07T13:39:57;65.78;;;22.63;;
19024;SDS011;9645;51.448;6.260;2023-12-07T13:42:25;30.55;;;12.70;;
19024;SDS011;9645;51.448;6.260;2023-12-07T13:44:53;35.60;;;13.35;;
19024;SDS011;9645;51.448;6.260;2023-12-07T13:47:22;26.33;;;12.05;;
19024;SDS011;9645;51.448;6.260;2023-12-07T13:49:55;34.25;;;11.80;;
19024;SDS011;9645;51.448;6.260;2023-12-07T13:52:22;29.75;;;12.07;;
19024;SDS011;9645;51.448;6.260;2023-12-07T13:54:50;31.48;;;12.30;;
19024;SDS011;9645;51.448;6.260;2023-12-07T13:57:18;28.45;;;12.50;;
19024;SDS011;9645;51.448;6.260;2023-12-07T13:59:45;37.90;;;12.55;;
19024;SDS011;9645;51.448;6.260;2023-12-07T14:02:12;28.02;;;11.65;;
19024;SDS011;9645;51.448;6.260;2023-12-07T14:04:40;23.88;;;11.00;;
19024;SDS011;9645;51.448;6.260;2023-12-07T14:07:10;30.40;;;11.35;;
19024;SDS011;9645;51.448;6.260;2023-12-07T14:09:39;32.60;;;12.35;;
19024;SDS011;9645;51.448;6.260;2023-12-07T14:12:07;31.70;;;10.93;;
19024;SDS011;9645;51.448;6.260;2023-12-07T14:14:36;29.38;;;10.55;;
19024;SDS011;9645;51.448;6.260;2023-12-07T14:17:03;27.58;;;11.63;;
19024;SDS011;9645;51.448;6.260;2023-12-07T14:19:30;27.80;;;11.02;;
19024;SDS011;9645;51.448;6.260;2023-12-07T14:21:58;32.15;;;11.05;;
19024;SDS011;9645;51.448;6.260;2023-12-07T14:24:26;29.50;;;12.27;;
19024;SDS011;9645;51.448;6.260;2023-12-07T14:26:55;28.15;;;11.65;;
19024;SDS011;9645;51.448;6.260;2023-12-07T14:29:23;27.27;;;11.30;;
19024;SDS011;9645;51.448;6.260;2023-12-07T14:31:51;30.77;;;12.25;;
19024;SDS011;9645;51.448;6.260;2023-12-07T14:34:18;27.63;;;11.65;;